Time;durP1;ratioP1;P1;durP2;ratioP2;P2;SDS_P1;SDS_P2;PMS_P1;PMS_P2;Temp;Humidity;BMP_temperature;BMP_pressure;BME280_temperature;BME280_humidity;BME280_pressure;Samples;Min_cycle;Max_cycle;Signal;HPM_P1;HPM_P2
2022/11/19 00:01:05;;;;;;;11.43;4.53;;;;;;;-3.61;98.67;100777.56;5999747;28;20031;-65
2022/11/19 00:04:00;;;;;;;12.85;5.05;;;;;;;-3.42;98.83;100806.22;6000775;28;20469;-66
2022/11/19 00:06:55;;;;;;;10.20;5.30;;;;;;;-3.57;99.02;100797.28;5999949;28;20046;-65
2022/11/19 00:09:51;;;;;;;10.33;4.50;;;;;;;-3.51;98.90;100810.03;6000197;28;20046;-64
2022/11/19 00:12:55;;;;;;;13.83;5.90;;;;;;;-3.55;98.96;100811.00;5998898;28;20045;-64
2022/11/19 00:15:51;;;;;;;11.68;5.45;;;;;;;-3.59;99.30;100793.06;5999904;28;20364;-65
2022/11/19 00:18:46;;;;;;;18.23;5.93;;;;;;;-3.58;99.64;100815.44;6000207;28;20046;-65
2022/11/19 00:21:41;;;;;;;14.47;4.90;;;;;;;-3.75;99.72;100797.94;5998845;28;20039;-67
2022/11/19 00:24:38;;;;;;;12.33;5.57;;;;;;;-3.59;99.96;100809.44;5999611;28;20034;-65
2022/11/19 00:27:33;;;;;;;12.32;5.45;;;;;;;-3.65;100.00;100807.94;5999866;28;20039;-65
2022/11/19 00:30:29;;;;;;;15.57;6.63;;;;;;;-3.78;100.00;100814.41;5999145;28;20041;-64
2022/11/19 00:33:24;;;;;;;11.50;4.50;;;;;;;-3.78;100.00;100801.47;5999975;28;20035;-64
2022/11/19 00:36:20;;;;;;;13.93;5.27;;;;;;;-3.84;100.00;100811.22;5999521;28;20451;-64
2022/11/19 00:39:16;;;;;;;15.68;6.10;;;;;;;-3.91;100.00;100800.19;5999146;28;20472;-64
2022/11/19 00:42:11;;;;;;;11.70;4.10;;;;;;;-3.73;100.00;100801.31;5998381;28;20031;-65
2022/11/19 00:45:07;;;;;;;14.27;6.30;;;;;;;-3.76;100.00;100815.22;5999527;28;20740;-63
2022/11/19 00:48:03;;;;;;;8.68;3.95;;;;;;;-3.75;100.00;100836.81;5999096;28;20034;-64
2022/11/19 00:50:58;;;;;;;14.27;5.65;;;;;;;-3.86;100.00;100839.72;5998440;28;20454;-64
2022/11/19 00:53:54;;;;;;;15.10;5.60;;;;;;;-3.88;100.00;100825.16;5999955;28;20035;-65
2022/11/19 00:56:50;;;;;;;11.57;4.20;;;;;;;-3.85;100.00;100846.63;5998463;28;20113;-65
2022/11/19 00:59:45;;;;;;;16.85;5.43;;;;;;;-3.84;100.00;100834.50;5999104;28;20828;-65
2022/11/19 01:02:41;;;;;;;16.27;5.60;;;;;;;-3.86;100.00;100829.38;5998294;28;20042;-64
2022/11/19 01:05:36;;;;;;;11.10;4.93;;;;;;;-3.96;100.00;100853.91;5998819;28;20058;-64
2022/11/19 01:08:31;;;;;;;12.45;4.53;;;;;;;-4.10;100.00;100830.22;5998801;28;20157;-66
2022/11/19 01:11:29;;;;;;;12.73;4.93;;;;;;;-4.00;100.00;100852.31;5998304;28;20118;-65
2022/11/19 01:14:24;;;;;;;16.77;5.32;;;;;;;-4.04;100.00;100855.03;5998922;28;20475;-64
2022/11/19 01:17:21;;;;;;;13.57;5.30;;;;;;;-4.11;100.00;100840.63;5999213;28;20082;-64
2022/11/19 01:20:16;;;;;;;15.05;4.78;;;;;;;-3.92;100.00;100855.50;5997969;28;20086;-65
2022/11/19 01:23:11;;;;;;;12.27;4.17;;;;;;;-4.05;100.00;100853.38;5997984;28;20035;-63
2022/11/19 01:26:07;;;;;;;18.13;6.18;;;;;;;-4.03;100.00;100856.75;5998210;28;20306;-64
2022/11/19 01:29:03;;;;;;;15.50;5.85;;;;;;;-4.05;100.00;100838.66;5998802;28;20041;-64
2022/11/19 01:31:58;;;;;;;14.63;5.70;;;;;;;-4.01;100.00;100847.19;5997989;28;20034;-65
2022/11/19 01:34:53;;;;;;;15.10;5.00;;;;;;;-4.03;100.00;100861.94;5998382;28;20333;-65
2022/11/19 01:37:49;;;;;;;6.37;3.30;;;;;;;-4.05;100.00;100861.16;5998887;28;20077;-63
2022/11/19 01:40:44;;;;;;;12.17;5.30;;;;;;;-4.04;100.00;100855.91;5996334;28;20123;-65
2022/11/19 01:43:48;;;;;;;17.87;7.40;;;;;;;-4.04;100.00;100871.44;5998903;28;20262;-64
2022/11/19 01:46:44;;;;;;;12.10;5.32;;;;;;;-4.13;100.00;100860.56;5998295;28;20357;-64
2022/11/19 01:49:39;;;;;;;15.87;5.93;;;;;;;-4.09;100.00;100875.06;5998403;28;20578;-64
2022/11/19 01:52:34;;;;;;;16.00;6.07;;;;;;;-4.08;100.00;100882.81;5997949;28;20421;-63
2022/11/19 01:55:30;;;;;;;12.57;4.97;;;;;;;-4.18;100.00;100873.63;5996893;28;20738;-65
2022/11/19 01:58:25;;;;;;;15.48;6.00;;;;;;;-4.29;100.00;100871.38;5998135;28;20105;-65
2022/11/19 02:01:21;;;;;;;11.73;4.37;;;;;;;-4.22;100.00;100877.22;5997649;28;20042;-65
2022/11/19 02:04:16;;;;;;;17.50;5.35;;;;;;;-4.30;100.00;100864.53;5996803;28;20034;-65
2022/11/19 02:07:13;;;;;;;10.43;4.60;;;;;;;-4.28;100.00;100867.06;5996926;28;20038;-66
2022/11/19 02:10:08;;;;;;;15.07;5.18;;;;;;;-4.36;100.00;100858.69;5997387;28;20038;-64
2022/11/19 02:13:17;;;;;;;14.98;5.28;;;;;;;-4.18;100.00;100881.38;5997272;28;20111;-65
2022/11/19 02:16:28;;;;;;;9.63;3.90;;;;;;;-4.31;100.00;100873.19;5996984;28;20034;-66
2022/11/19 02:19:42;;;;;;;13.43;5.70;;;;;;;-4.13;100.00;100887.25;5998100;28;20449;-65
2022/11/19 02:23:08;;;;;;;17.48;5.43;;;;;;;-4.21;100.00;100889.25;5996973;28;20496;-64
2022/11/19 02:26:51;;;;;;;10.40;4.30;;;;;;;-4.28;100.00;100892.94;5998286;28;20077;-65
2022/11/19 02:29:59;;;;;;;12.60;5.15;;;;;;;-4.34;100.00;100887.94;5994128;28;20414;-64
2022/11/19 02:33:04;;;;;;;12.07;4.05;;;;;;;-4.14;100.00;100892.50;5997348;28;20082;-65
2022/11/19 02:36:08;;;;;;;11.27;4.82;;;;;;;-4.19;100.00;100892.66;5999425;28;20806;-65
2022/11/19 02:39:07;;;;;;;14.15;4.80;;;;;;;-4.17;100.00;100902.94;5999883;28;20067;-64
2022/11/19 02:42:07;;;;;;;14.90;4.63;;;;;;;-4.37;100.00;100888.91;6001412;28;20034;-65
2022/11/19 02:45:04;;;;;;;12.27;4.55;;;;;;;-4.30;100.00;100902.50;6001012;28;20478;-64
2022/11/19 02:48:11;;;;;;;15.05;5.07;;;;;;;-3.98;100.00;100884.19;6001549;28;20043;-64
2022/11/19 02:51:07;;;;;;;17.90;4.32;;;;;;;-3.91;100.00;100890.84;6001490;28;20444;-65
2022/11/19 02:54:03;;;;;;;19.85;5.55;;;;;;;-4.06;100.00;100909.47;6001625;28;20035;-65
2022/11/19 02:56:59;;;;;;;14.43;5.18;;;;;;;-4.12;100.00;100920.03;5995976;28;20031;-66
2022/11/19 03:06:31;;;;;;;16.58;6.40;;;;;;;-3.81;100.00;100905.19;6000457;28;20046;-64
2022/11/19 03:09:27;;;;;;;12.57;5.05;;;;;;;-4.22;100.00;100903.09;5999682;28;20035;-65
2022/11/19 03:12:46;;;;;;;18.98;5.88;;;;;;;-3.99;100.00;100910.09;5999214;28;20073;-64
2022/11/19 03:19:06;;;;;;;11.30;5.38;;;;;;;-4.41;100.00;100913.19;6000478;28;20463;-64
2022/11/19 03:22:25;;;;;;;19.23;6.03;;;;;;;-4.39;100.00;100920.88;6000836;28;20026;-65
2022/11/19 03:25:54;;;;;;;16.05;5.68;;;;;;;-4.34;100.00;100913.81;6000786;28;20031;-66
2022/11/19 03:28:50;;;;;;;14.50;6.45;;;;;;;-4.59;100.00;100910.31;5992542;28;20082;-66
2022/11/19 03:31:49;;;;;;;11.70;5.20;;;;;;;-4.40;100.00;100916.59;5999250;28;20045;-65
2022/11/19 03:34:46;;;;;;;11.57;4.90;;;;;;;-4.33;100.00;100915.53;5999791;28;20031;-64
2022/11/19 03:37:42;;;;;;;15.00;6.18;;;;;;;-4.67;100.00;100914.88;5996041;28;20031;-65
2022/11/19 03:40:38;;;;;;;12.98;5.07;;;;;;;-4.50;100.00;100926.41;6000360;28;20027;-64
2022/11/19 03:43:37;;;;;;;16.42;5.25;;;;;;;-4.64;100.00;100927.69;6000814;28;20719;-65
2022/11/19 03:46:34;;;;;;;18.02;5.85;;;;;;;-4.32;100.00;100935.34;5998307;28;20035;-64
2022/11/19 03:49:36;;;;;;;18.05;5.20;;;;;;;-4.12;100.00;100926.94;6000388;28;20042;-65
2022/11/19 03:52:32;;;;;;;21.83;6.55;;;;;;;-4.28;100.00;100945.56;5998584;28;20034;-64
2022/11/19 03:55:34;;;;;;;20.17;6.93;;;;;;;-4.07;100.00;100953.53;6000777;28;20061;-65
2022/11/19 03:58:35;;;;;;;19.88;7.10;;;;;;;-4.05;100.00;100947.41;5998575;28;20054;-65
2022/11/19 04:01:32;;;;;;;9.95;4.32;;;;;;;-4.33;100.00;100952.63;5998334;28;20057;-65
2022/11/19 04:04:36;;;;;;;14.20;5.25;;;;;;;-4.47;100.00;100933.22;6000302;28;20042;-65
2022/11/19 04:07:31;;;;;;;10.80;4.30;;;;;;;-4.33;100.00;100949.16;6000456;28;20125;-63
2022/11/19 04:10:27;;;;;;;18.27;6.57;;;;;;;-4.55;100.00;100955.88;5999703;28;20038;-66
2022/11/19 04:13:22;;;;;;;14.93;4.90;;;;;;;-4.27;100.00;100957.56;5999901;28;20356;-65
2022/11/19 04:16:17;;;;;;;14.60;5.50;;;;;;;-4.56;100.00;100946.41;6000289;28;20123;-64
2022/11/19 04:19:13;;;;;;;14.27;4.73;;;;;;;-4.51;100.00;100949.75;5999481;28;20081;-65
2022/11/19 04:22:08;;;;;;;15.35;6.25;;;;;;;-4.19;100.00;100978.06;5999407;28;20090;-65
2022/11/19 04:25:04;;;;;;;15.82;5.47;;;;;;;-3.99;100.00;100956.72;5999844;28;20054;-66
2022/11/19 04:27:59;;;;;;;14.95;4.93;;;;;;;-4.23;100.00;100966.09;5999674;28;20170;-65
2022/11/19 04:30:55;;;;;;;12.37;4.67;;;;;;;-4.06;100.00;100956.09;5999374;28;20126;-64
2022/11/19 04:33:50;;;;;;;14.10;4.93;;;;;;;-4.07;100.00;100959.56;5999671;28;20411;-64
2022/11/19 04:36:45;;;;;;;13.57;4.80;;;;;;;-3.73;100.00;100967.09;5999403;28;20120;-64
2022/11/19 04:39:41;;;;;;;12.43;4.77;;;;;;;-3.97;100.00;100950.63;5999164;28;20089;-64
2022/11/19 04:42:36;;;;;;;12.23;5.40;;;;;;;-4.28;100.00;100948.13;5999041;28;20110;-66
2022/11/19 04:45:31;;;;;;;12.53;5.10;;;;;;;-4.35;100.00;100948.38;5999350;28;20035;-65
2022/11/19 04:48:27;;;;;;;14.32;4.57;;;;;;;-4.31;100.00;100965.50;5999096;28;20039;-65
2022/11/19 04:51:22;;;;;;;8.53;3.77;;;;;;;-4.17;100.00;100958.16;5998941;28;20470;-65
2022/11/19 04:54:18;;;;;;;24.20;5.65;;;;;;;-4.26;100.00;100964.47;5999061;28;20034;-65
2022/11/19 04:57:14;;;;;;;11.00;4.53;;;;;;;-4.70;100.00;100940.81;5998889;28;20046;-64
2022/11/19 05:00:10;;;;;;;15.68;4.88;;;;;;;-4.91;100.00;100948.28;5997873;28;20026;-65
2022/11/19 05:03:05;;;;;;;13.15;5.15;;;;;;;-4.98;100.00;100956.28;5998964;28;20031;-65
2022/11/19 05:06:01;;;;;;;9.82;4.15;;;;;;;-5.06;100.00;100943.56;5999407;28;20035;-64
2022/11/19 05:08:56;;;;;;;13.77;5.90;;;;;;;-4.95;100.00;100964.81;5998369;28;20046;-65
2022/11/19 05:11:51;;;;;;;14.43;4.80;;;;;;;-4.64;100.00;100961.31;5998548;28;20038;-65
2022/11/19 05:14:47;;;;;;;17.23;5.53;;;;;;;-4.17;100.00;100941.78;5999396;28;20058;-64
2022/11/19 05:17:43;;;;;;;14.03;4.67;;;;;;;-4.31;100.00;100932.69;5999106;28;20031;-66
2022/11/19 05:20:38;;;;;;;11.32;5.00;;;;;;;-3.99;100.00;100942.03;5998720;28;20038;-65
2022/11/19 05:23:34;;;;;;;19.63;6.03;;;;;;;-3.64;100.00;100948.66;5998768;28;20467;-66
2022/11/19 05:26:29;;;;;;;15.07;5.73;;;;;;;-3.63;100.00;100940.84;5998815;28;20065;-64
2022/11/19 05:29:24;;;;;;;14.03;5.07;;;;;;;-4.15;100.00;100937.38;5998900;28;20046;-65
2022/11/19 05:32:20;;;;;;;16.47;6.30;;;;;;;-4.17;100.00;100932.28;5998082;28;20077;-64
2022/11/19 05:35:15;;;;;;;16.40;5.73;;;;;;;-3.87;100.00;100931.28;5999228;28;20478;-64
2022/11/19 05:38:10;;;;;;;12.63;5.13;;;;;;;-3.96;100.00;100933.31;5998520;28;20330;-66
2022/11/19 05:41:06;;;;;;;17.30;5.77;;;;;;;-4.01;100.00;100948.16;5998228;28;20109;-64
2022/11/19 05:44:01;;;;;;;13.70;5.67;;;;;;;-4.17;100.00;100947.81;5998096;28;20027;-64
2022/11/19 05:46:58;;;;;;;12.50;6.28;;;;;;;-4.06;100.00;100963.00;5998633;28;20374;-64
2022/11/19 05:49:53;;;;;;;13.65;5.35;;;;;;;-4.39;100.00;100975.22;5998857;28;20074;-66
2022/11/19 05:52:49;;;;;;;13.63;3.90;;;;;;;-4.26;100.00;100967.03;5997846;28;20054;-65
2022/11/19 05:55:45;;;;;;;12.65;5.45;;;;;;;-4.48;100.00;100966.00;5998024;28;20046;-65
2022/11/19 05:58:40;;;;;;;16.38;5.55;;;;;;;-4.18;100.00;100961.63;5998439;28;20034;-64
2022/11/19 06:01:36;;;;;;;27.63;5.97;;;;;;;-4.26;100.00;100958.44;5997419;28;20114;-65
2022/11/19 06:04:31;;;;;;;16.23;6.87;;;;;;;-4.41;100.00;100969.25;5998649;28;20262;-65
2022/11/19 06:07:27;;;;;;;14.33;5.03;;;;;;;-4.45;100.00;100976.25;5998536;28;21084;-65
2022/11/19 06:10:22;;;;;;;12.93;4.50;;;;;;;-4.34;100.00;100973.34;5999638;28;20430;-65
2022/11/19 06:13:17;;;;;;;9.37;4.17;;;;;;;-4.78;100.00;100955.72;6003016;28;20672;-65
2022/11/19 06:16:13;;;;;;;14.13;5.10;;;;;;;-5.03;100.00;100974.47;6002544;28;20027;-65
2022/11/19 06:19:08;;;;;;;16.77;5.47;;;;;;;-4.95;100.00;100990.66;6003024;28;20093;-65
2022/11/19 06:22:04;;;;;;;10.07;4.57;;;;;;;-4.82;100.00;100981.66;6002103;28;20142;-64
2022/11/19 06:24:59;;;;;;;16.05;5.90;;;;;;;-4.91;100.00;100992.25;6002673;28;20117;-65
2022/11/19 06:27:54;;;;;;;11.40;5.23;;;;;;;-5.12;100.00;100979.06;6002884;28;20034;-66
2022/11/19 06:30:50;;;;;;;14.00;5.30;;;;;;;-4.97;100.00;100989.81;6002259;28;20030;-64
2022/11/19 06:33:45;;;;;;;14.53;5.73;;;;;;;-4.93;100.00;100996.63;6002337;28;20410;-65
2022/11/19 06:36:41;;;;;;;14.03;4.67;;;;;;;-4.71;100.00;100996.00;6002283;28;20030;-64
2022/11/19 06:39:36;;;;;;;12.73;5.32;;;;;;;-4.98;100.00;101002.81;5999924;28;20027;-65
2022/11/19 06:42:37;;;;;;;11.70;4.70;;;;;;;-4.99;100.00;100994.19;6001827;28;20066;-64
2022/11/19 06:45:32;;;;;;;12.43;4.95;;;;;;;-4.81;100.00;101016.94;6002284;28;20043;-66
2022/11/19 06:48:27;;;;;;;17.83;5.20;;;;;;;-4.72;100.00;101012.41;6002272;28;20042;-65
2022/11/19 06:51:23;;;;;;;14.93;5.80;;;;;;;-4.60;100.00;101010.34;6000139;28;20027;-65
2022/11/19 06:54:18;;;;;;;14.68;5.95;;;;;;;-4.92;100.00;101013.81;6002513;28;20381;-65
2022/11/19 06:57:14;;;;;;;17.70;5.17;;;;;;;-4.89;100.00;101013.72;6001555;28;20054;-65
2022/11/19 07:00:10;;;;;;;17.17;6.18;;;;;;;-4.68;100.00;101009.72;6001196;28;20035;-65
2022/11/19 07:03:06;;;;;;;18.30;6.18;;;;;;;-4.69;100.00;101001.97;6001992;28;20034;-65
2022/11/19 07:06:03;;;;;;;16.60;6.35;;;;;;;-4.39;100.00;101030.41;6001477;28;20047;-64
2022/11/19 07:08:58;;;;;;;17.60;6.68;;;;;;;-4.12;100.00;101008.03;6001539;28;20462;-64
2022/11/19 07:11:53;;;;;;;14.40;4.70;;;;;;;-3.98;100.00;101007.63;6000983;28;20042;-65
2022/11/19 07:14:49;;;;;;;13.87;5.97;;;;;;;-3.64;100.00;101022.03;6001986;28;20031;-65
2022/11/19 07:17:44;;;;;;;19.97;7.13;;;;;;;-4.41;100.00;101036.53;6001808;28;20096;-65
2022/11/19 07:20:40;;;;;;;13.17;5.70;;;;;;;-4.45;100.00;101034.91;6000393;28;20041;-64
2022/11/19 07:23:35;;;;;;;22.20;7.25;;;;;;;-4.41;100.00;101042.56;6001300;28;20022;-65
2022/11/19 07:26:32;;;;;;;17.40;6.27;;;;;;;-3.93;100.00;101024.72;6000807;28;20038;-65
2022/11/19 07:29:27;;;;;;;16.02;6.18;;;;;;;-3.75;100.00;101039.66;6001482;28;20026;-65
2022/11/19 07:32:22;;;;;;;18.43;5.50;;;;;;;-3.71;100.00;101017.09;6000632;28;20142;-65
2022/11/19 07:35:17;;;;;;;13.93;5.27;;;;;;;-3.66;100.00;101041.97;6000671;28;20062;-65
2022/11/19 07:38:13;;;;;;;18.60;6.30;;;;;;;-3.72;100.00;101033.53;6000957;28;20045;-64
2022/11/19 07:44:22;;;;;;;17.58;6.20;;;;;;;-4.75;100.00;101036.63;6001308;28;20133;-65
2022/11/19 07:47:17;;;;;;;18.03;6.80;;;;;;;-4.92;100.00;101042.25;6000878;28;20035;-65
2022/11/19 07:50:13;;;;;;;14.67;5.27;;;;;;;-4.54;100.00;101043.78;6000065;28;20182;-64
2022/11/19 07:53:09;;;;;;;19.50;7.03;;;;;;;-4.26;100.00;101036.06;6000723;28;20494;-65
2022/11/19 07:56:04;;;;;;;21.63;8.00;;;;;;;-4.29;100.00;101042.19;6000269;28;20038;-66
2022/11/19 07:59:00;;;;;;;14.45;6.85;;;;;;;-4.48;100.00;101020.31;6000598;28;20408;-65
2022/11/19 08:01:55;;;;;;;19.45;8.32;;;;;;;-4.26;100.00;101039.50;5994681;28;20031;-65
2022/11/19 08:04:50;;;;;;;21.80;7.47;;;;;;;-4.23;100.00;101036.00;6000420;28;20046;-67
2022/11/19 08:07:46;;;;;;;23.05;7.40;;;;;;;-4.03;100.00;101023.31;5998918;28;20034;-67
2022/11/19 08:10:41;;;;;;;14.80;5.13;;;;;;;-3.94;100.00;101032.53;5999359;28;20063;-68
2022/11/19 08:13:38;;;;;;;20.13;7.13;;;;;;;-3.56;100.00;101044.28;5999451;28;20270;-69
2022/11/19 08:19:47;;;;;;;19.00;7.28;;;;;;;-3.00;100.00;101038.06;5994177;28;20070;-69
2022/11/19 08:22:43;;;;;;;24.38;7.95;;;;;;;-2.94;100.00;101039.59;5991925;28;20439;-70
2022/11/19 08:25:41;;;;;;;13.50;6.10;;;;;;;-3.07;100.00;101021.00;6000847;28;20382;-69
2022/11/19 08:28:37;;;;;;;15.13;6.07;;;;;;;-2.78;100.00;101030.38;5999660;28;20034;-70
2022/11/19 08:31:32;;;;;;;15.77;5.43;;;;;;;-2.98;99.26;101023.28;5998443;28;20471;-70
2022/11/19 08:34:28;;;;;;;15.50;6.03;;;;;;;-2.85;99.84;101023.72;5998361;28;20070;-70
2022/11/19 08:37:23;;;;;;;15.23;5.43;;;;;;;-3.03;99.24;101012.22;5998846;28;20027;-69
2022/11/19 08:40:19;;;;;;;16.53;5.23;;;;;;;-2.67;99.92;101023.91;5998798;28;20034;-69
2022/11/19 08:43:14;;;;;;;14.17;5.03;;;;;;;-2.36;99.79;101013.22;5999359;28;20026;-69
2022/11/19 08:46:09;;;;;;;17.67;6.43;;;;;;;-2.19;99.58;101036.81;5998875;28;20034;-69
2022/11/19 08:49:05;;;;;;;14.70;6.20;;;;;;;-2.15;98.97;101014.19;5998720;28;20041;-69
2022/11/19 08:52:00;;;;;;;17.20;6.07;;;;;;;-2.20;97.08;101018.69;5998308;28;20154;-69
2022/11/19 08:54:56;;;;;;;15.40;5.97;;;;;;;-1.74;95.81;101008.22;5998797;28;20389;-69
2022/11/19 08:57:51;;;;;;;10.10;4.47;;;;;;;-1.67;95.74;100988.00;5998886;28;20282;-69
2022/11/19 09:00:47;;;;;;;10.67;4.63;;;;;;;-1.34;93.06;101008.28;5998088;28;20117;-69
2022/11/19 09:03:43;;;;;;;14.50;6.18;;;;;;;-1.23;90.02;101019.06;5998573;28;20266;-69
2022/11/19 09:06:39;;;;;;;13.60;4.82;;;;;;;-0.96;90.02;101008.41;5997154;28;20050;-69
2022/11/19 09:09:34;;;;;;;12.43;5.53;;;;;;;-0.89;88.32;101009.81;5998603;28;20093;-69
2022/11/19 09:12:29;;;;;;;13.10;5.40;;;;;;;-0.68;87.47;101012.31;5997842;28;20039;-69
2022/11/19 09:15:24;;;;;;;11.87;5.00;;;;;;;-0.49;86.75;101004.53;5998435;28;20030;-70
2022/11/19 09:18:20;;;;;;;11.53;4.93;;;;;;;-0.18;86.47;101020.47;5998639;28;20266;-70
2022/11/19 09:21:16;;;;;;;12.50;4.32;;;;;;;0.16;84.10;101008.47;5997557;28;20030;-70
2022/11/19 09:24:11;;;;;;;13.00;5.10;;;;;;;-0.10;81.49;101013.13;5998739;28;20062;-70
2022/11/19 09:27:06;;;;;;;9.27;4.60;;;;;;;0.13;80.97;101013.81;5998078;28;20033;-69
2022/11/19 09:30:03;;;;;;;10.90;3.80;;;;;;;0.07;79.32;101021.94;5998010;28;20042;-68
2022/11/19 09:32:58;;;;;;;11.93;4.13;;;;;;;0.00;78.42;101024.81;5998570;28;20459;-69
2022/11/19 09:35:54;;;;;;;16.17;4.57;;;;;;;0.04;78.23;101014.25;5998103;28;20122;-68
2022/11/19 09:38:49;;;;;;;11.33;4.27;;;;;;;0.26;78.15;101025.34;5997610;28;20425;-69
2022/11/19 09:42:10;;;;;;;8.70;3.37;;;;;;;0.35;78.40;101022.31;5998401;28;20065;-68
2022/11/19 09:45:14;;;;;;;8.77;3.90;;;;;;;0.27;76.19;101004.41;5998652;28;20274;-68
2022/11/19 09:48:37;;;;;;;8.55;3.95;;;;;;;0.60;77.33;101023.63;5997419;28;20122;-68
2022/11/19 09:51:33;;;;;;;8.13;4.05;;;;;;;0.62;76.04;100996.66;6001319;28;20041;-68
2022/11/19 09:54:28;;;;;;;10.82;4.10;;;;;;;0.97;76.13;101008.75;6001141;28;20035;-68
2022/11/19 09:57:54;;;;;;;9.32;3.90;;;;;;;0.73;75.33;101023.06;6002910;28;20038;-68
2022/11/19 10:00:49;;;;;;;9.63;4.78;;;;;;;0.77;73.74;100999.31;5998156;28;20539;-67
2022/11/19 10:03:49;;;;;;;9.27;4.07;;;;;;;0.85;73.79;100994.56;6002491;28;20038;-68
2022/11/19 10:06:59;;;;;;;10.13;4.43;;;;;;;0.69;73.77;100988.44;6002996;28;20038;-69
2022/11/19 10:10:12;;;;;;;9.05;4.30;;;;;;;1.05;72.33;100994.41;6002706;28;20039;-69
2022/11/19 10:13:23;;;;;;;8.07;3.90;;;;;;;0.97;71.47;100995.72;6002094;28;20085;-68
2022/11/19 10:16:39;;;;;;;9.63;3.90;;;;;;;0.95;71.37;100990.56;6002711;28;20057;-69
2022/11/19 10:19:37;;;;;;;11.98;3.70;;;;;;;1.12;71.88;100998.38;6001666;28;20464;-68
2022/11/19 10:22:56;;;;;;;9.88;4.28;;;;;;;1.33;71.62;100991.19;6001310;28;20038;-69
2022/11/19 10:25:59;;;;;;;10.85;4.00;;;;;;;1.80;68.83;100986.00;6000836;28;20089;-69
2022/11/19 10:28:56;;;;;;;7.90;3.70;;;;;;;1.91;68.57;100982.81;6000937;28;20081;-69
2022/11/19 10:31:51;;;;;;;10.77;4.60;;;;;;;2.00;71.98;100988.38;6001729;28;20030;-69
2022/11/19 10:34:50;;;;;;;15.00;6.37;;;;;;;2.56;66.29;100994.78;6002354;28;20066;-69
2022/11/19 10:37:55;;;;;;;8.98;3.97;;;;;;;2.37;64.57;100997.63;6001367;28;20611;-70
2022/11/19 10:40:58;;;;;;;8.20;3.60;;;;;;;2.37;64.55;100998.47;5999661;28;20062;-69
2022/11/19 10:43:56;;;;;;;8.73;3.58;;;;;;;2.50;64.02;100998.59;5999386;28;20035;-69
2022/11/19 10:46:52;;;;;;;9.25;3.95;;;;;;;2.44;66.57;101003.34;5998730;28;20026;-68
2022/11/19 10:49:52;;;;;;;11.48;4.13;;;;;;;2.32;67.57;100990.03;6000686;28;20031;-69
2022/11/19 10:53:10;;;;;;;9.80;4.30;;;;;;;1.76;68.60;100994.97;5999470;28;20031;-69
2022/11/19 10:56:18;;;;;;;9.75;3.47;;;;;;;1.66;69.84;100983.31;5999020;28;20027;-69
2022/11/19 10:59:23;;;;;;;7.95;3.80;;;;;;;1.62;69.78;100981.81;6013688;28;20035;-68
2022/11/19 11:02:43;;;;;;;7.50;3.03;;;;;;;1.68;69.93;100979.72;5997154;28;20026;-68
2022/11/19 11:05:56;;;;;;;7.60;3.58;;;;;;;1.33;69.53;100996.44;5996951;28;20035;-68
2022/11/19 11:08:53;;;;;;;8.60;3.08;;;;;;;0.79;70.84;100981.81;5998305;28;20118;-69
2022/11/19 11:15:24;;;;;;;9.07;3.47;;;;;;;0.21;72.73;100964.78;5971849;29;20886;-69
2022/11/19 11:18:25;;;;;;;7.65;3.30;;;;;;;0.32;74.43;100970.31;5993872;28;20038;-69
2022/11/19 11:21:38;;;;;;;9.35;3.70;;;;;;;0.06;75.38;100960.28;5998796;28;20031;-68
2022/11/19 11:24:37;;;;;;;9.13;3.60;;;;;;;-0.03;75.38;100962.41;5996795;28;20406;-68
2022/11/19 11:27:34;;;;;;;9.95;3.58;;;;;;;-0.04;74.55;100958.13;5999275;28;20077;-68
2022/11/19 11:30:29;;;;;;;9.77;3.65;;;;;;;0.18;75.56;100954.47;5997270;28;20661;-68
2022/11/19 11:33:31;;;;;;;7.72;3.67;;;;;;;0.24;76.35;100955.03;6000092;28;20039;-68
2022/11/19 11:36:31;;;;;;;10.10;3.13;;;;;;;0.10;76.02;100960.06;5999369;28;20031;-69
2022/11/19 11:39:27;;;;;;;8.47;3.33;;;;;;;0.00;76.89;100957.06;5955983;28;1296762;-69
2022/11/19 11:42:25;;;;;;;5.35;2.50;;;;;;;-0.12;77.32;100951.59;5999171;28;20034;-70
2022/11/19 11:45:31;;;;;;;7.55;3.17;;;;;;;-0.10;77.66;100955.81;6000546;28;20538;-69
2022/11/19 11:48:34;;;;;;;7.78;3.42;;;;;;;-0.11;77.43;100938.47;5998654;28;20042;-68
2022/11/19 11:51:38;;;;;;;7.35;3.33;;;;;;;-0.12;77.37;100947.22;5999782;28;20085;-70
2022/11/19 11:54:34;;;;;;;6.10;2.63;;;;;;;-0.02;76.63;100922.41;5999303;28;20667;-70
2022/11/19 11:58:08;;;;;;;7.57;3.17;;;;;;;-0.10;76.56;100918.47;5999317;28;20037;-69
2022/11/19 12:01:17;;;;;;;6.45;2.70;;;;;;;-0.10;75.72;100921.94;5998724;28;20078;-69
2022/11/19 12:04:12;;;;;;;8.63;3.50;;;;;;;-0.08;75.12;100921.84;5998775;28;20027;-70
2022/11/19 12:07:13;;;;;;;9.03;3.37;;;;;;;-0.07;76.15;100933.97;5999611;28;20174;-69
2022/11/19 12:10:18;;;;;;;8.27;3.45;;;;;;;-0.16;77.51;100916.16;5998852;28;20042;-69
2022/11/19 12:13:29;;;;;;;7.25;3.28;;;;;;;-0.10;77.34;100908.06;6000083;28;20077;-69
2022/11/19 12:16:44;;;;;;;8.73;3.10;;;;;;;-0.04;76.56;100928.63;5998497;28;20390;-69
2022/11/19 12:19:44;;;;;;;7.30;3.03;;;;;;;0.04;76.37;100930.84;5998605;28;20430;-68
2022/11/19 12:23:18;;;;;;;8.88;2.92;;;;;;;0.10;74.25;100914.91;5997443;28;20459;-69
2022/11/19 12:26:43;;;;;;;8.20;2.72;;;;;;;0.12;74.61;100920.88;5999660;28;20031;-68
2022/11/19 12:29:56;;;;;;;6.00;2.85;;;;;;;0.27;73.22;100925.38;5994285;28;20043;-69
2022/11/19 12:32:58;;;;;;;8.57;3.88;;;;;;;0.38;74.60;100912.63;5998564;28;20038;-70
2022/11/19 12:36:23;;;;;;;8.75;3.83;;;;;;;0.50;74.19;100912.00;5999323;28;20041;-69
2022/11/19 12:39:33;;;;;;;8.30;3.47;;;;;;;0.50;75.42;100898.97;5997643;28;20468;-69
2022/11/19 12:42:42;;;;;;;8.35;3.78;;;;;;;0.67;76.18;100900.72;6012675;28;20054;-70
2022/11/19 12:45:57;;;;;;;9.75;3.58;;;;;;;0.94;76.22;100907.97;5999282;28;20073;-69
2022/11/19 12:49:15;;;;;;;7.70;3.08;;;;;;;0.99;73.43;100903.34;5992032;28;20156;-69
2022/11/19 12:52:19;;;;;;;7.93;3.03;;;;;;;1.08;70.82;100905.47;5997442;28;20027;-69
2022/11/19 12:55:25;;;;;;;6.53;2.63;;;;;;;0.97;71.13;100902.59;5998839;28;20042;-69
2022/11/19 12:58:24;;;;;;;6.95;3.20;;;;;;;0.92;72.37;100899.38;5997711;28;20045;-70
2022/11/19 13:01:25;;;;;;;7.40;2.78;;;;;;;0.75;71.68;100867.25;5997877;28;20090;-69
2022/11/19 13:04:28;;;;;;;6.22;2.80;;;;;;;0.78;71.76;100894.03;5997490;28;20033;-69
2022/11/19 13:07:31;;;;;;;5.45;2.58;;;;;;;0.97;69.64;100902.59;5996385;28;20106;-69
2022/11/19 13:10:37;;;;;;;7.30;2.67;;;;;;;0.90;69.00;100893.38;5996946;28;20051;-70
2022/11/19 13:13:34;;;;;;;8.52;2.58;;;;;;;0.92;69.33;100888.94;5997597;28;20070;-69
2022/11/19 13:16:31;;;;;;;7.03;3.13;;;;;;;0.93;69.83;100898.44;5998693;28;20034;-69
2022/11/19 13:19:30;;;;;;;11.98;3.60;;;;;;;0.74;70.63;100900.31;5998437;28;20026;-69
2022/11/19 13:22:36;;;;;;;11.68;3.90;;;;;;;0.71;69.94;100908.28;5997047;28;20034;-68
2022/11/19 13:25:37;;;;;;;10.43;4.70;;;;;;;0.63;71.25;100900.03;5997037;28;20139;-69
2022/11/19 13:28:42;;;;;;;9.27;3.38;;;;;;;0.48;71.60;100901.66;5996745;28;20038;-69
2022/11/19 13:31:45;;;;;;;7.22;2.85;;;;;;;0.33;72.68;100906.78;5997831;28;20470;-69
2022/11/19 13:34:56;;;;;;;4.97;2.35;;;;;;;0.25;72.61;100911.53;5998712;28;20747;-69
2022/11/19 13:38:16;;;;;;;7.85;2.72;;;;;;;0.15;72.82;100910.31;5997372;28;20041;-69
2022/11/19 13:41:27;;;;;;;8.20;2.83;;;;;;;-0.03;74.98;100893.81;5995437;28;20039;-67
2022/11/19 13:44:39;;;;;;;7.35;2.80;;;;;;;-0.10;75.18;100908.91;5997197;28;20027;-70
2022/11/19 13:47:56;;;;;;;6.90;3.08;;;;;;;-0.15;76.35;100897.88;5997074;28;20058;-67
2022/11/19 13:50:53;;;;;;;7.38;2.55;;;;;;;-0.16;76.98;100882.28;5996402;28;20035;-68
2022/11/19 13:53:48;;;;;;;6.32;3.00;;;;;;;-0.28;77.59;100883.75;5997249;28;20030;-68
2022/11/19 13:56:46;;;;;;;14.52;5.25;;;;;;;-0.15;78.52;100905.69;5998051;28;20469;-68
2022/11/19 13:59:43;;;;;;;11.07;4.38;;;;;;;-0.22;80.15;100887.81;5996807;28;20042;-68
2022/11/19 14:02:56;;;;;;;11.73;3.90;;;;;;;-0.30;81.32;100890.75;5995984;28;20078;-68
2022/11/19 14:06:04;;;;;;;11.55;4.15;;;;;;;-0.38;81.86;100884.25;5998597;28;20113;-68